Time;durP1;ratioP1;P1;durP2;ratioP2;P2;SDS_P1;SDS_P2;PMS_P1;PMS_P2;Temp;Humidity;BMP_temperature;BMP_pressure;BME280_temperature;BME280_humidity;BME280_pressure;Samples;Min_cycle;Max_cycle;Signal;HPM_P1;HPM_P2
2022/08/19 00:02:03;;;;;;;24.15;21.70;;;19.70;99.90;;;18.95;100.00;97521.53;4941565;28;20426;-63
2022/08/19 00:04:35;;;;;;;23.38;21.17;;;19.60;99.90;;;18.95;100.00;97533.81;4934852;28;20143;-62
2022/08/19 00:07:06;;;;;;;23.65;21.38;;;19.60;99.90;;;18.98;100.00;97533.59;4939145;28;20473;-62
2022/08/19 00:09:33;;;;;;;23.83;21.42;;;19.60;99.90;;;18.91;100.00;97545.56;4945228;28;20051;-63
2022/08/19 00:12:01;;;;;;;25.92;23.42;;;19.60;99.90;;;18.85;100.00;97551.28;4941862;28;20450;-62
2022/08/19 00:14:31;;;;;;;27.23;24.30;;;19.50;99.90;;;18.72;100.00;97552.16;4939220;28;20047;-63
2022/08/19 00:16:58;;;;;;;27.33;24.65;;;19.40;99.90;;;18.83;100.00;97530.34;4957968;28;20058;-63
2022/08/19 00:19:25;;;;;;;30.23;26.70;;;19.40;99.90;;;18.81;100.00;97506.78;4944400;28;20496;-63
2022/08/19 00:21:55;;;;;;;29.58;26.50;;;19.40;99.90;;;18.96;100.00;97482.91;4961064;28;20059;-63
2022/08/19 00:24:22;;;;;;;27.08;24.15;;;19.40;99.90;;;19.00;100.00;97469.41;4943334;28;20150;-63
2022/08/19 00:26:50;;;;;;;26.40;23.77;;;19.50;99.90;;;19.07;100.00;97456.59;4941393;28;20138;-63
2022/08/19 00:29:20;;;;;;;25.70;23.17;;;19.60;99.90;;;19.09;100.00;97464.34;4943163;28;20077;-64
2022/08/19 00:31:47;;;;;;;27.50;24.73;;;19.70;99.90;;;19.10;100.00;97466.03;4945078;28;20141;-63
2022/08/19 00:34:16;;;;;;;23.55;21.20;;;19.70;99.90;;;19.18;100.00;97464.47;4944613;28;20047;-64
2022/08/19 00:36:44;;;;;;;23.73;21.42;;;19.70;99.90;;;19.30;100.00;97464.47;4940283;28;20508;-63
2022/08/19 00:39:12;;;;;;;24.00;21.60;;;19.80;99.90;;;19.30;100.00;97465.28;4956204;28;20063;-64
2022/08/19 00:41:41;;;;;;;23.80;21.50;;;19.80;99.90;;;19.35;100.00;97460.50;4957345;28;20057;-63
2022/08/19 00:44:12;;;;;;;23.38;21.08;;;19.90;99.90;;;19.43;100.00;97459.88;4954873;28;20051;-64
2022/08/19 00:46:45;;;;;;;24.85;22.35;;;19.90;99.90;;;19.29;100.00;97462.78;4958459;28;20055;-63
2022/08/19 00:49:52;;;;;;;22.73;20.33;;;19.80;99.90;;;19.16;100.00;97469.03;4941789;28;20051;-66
2022/08/19 00:52:47;;;;;;;22.92;20.13;;;19.80;99.90;;;19.11;100.00;97465.06;4954707;28;20608;-63
2022/08/19 00:55:23;;;;;;;22.23;19.98;;;19.80;99.90;;;19.15;100.00;97474.41;4938148;28;20051;-64
2022/08/19 00:58:00;;;;;;;23.13;20.85;;;19.70;99.90;;;19.07;100.00;97479.41;4955041;28;20377;-64
2022/08/19 01:00:29;;;;;;;21.77;19.63;;;19.60;99.90;;;18.97;100.00;97489.81;4939797;29;20065;-63
2022/08/19 01:02:56;;;;;;;23.30;21.10;;;19.50;99.90;;;18.86;100.00;97498.56;4956398;28;20059;-63
2022/08/19 01:05:28;;;;;;;22.52;20.33;;;19.50;99.90;;;18.91;100.00;97483.28;4942086;28;20684;-64
2022/08/19 01:07:58;;;;;;;25.27;22.70;;;19.50;99.90;;;18.78;100.00;97496.53;4941150;29;20048;-64
2022/08/19 01:10:29;;;;;;;22.83;20.63;;;19.50;99.90;;;18.76;100.00;97502.81;4942766;28;20073;-64
2022/08/19 01:13:03;;;;;;;24.05;21.77;;;19.40;99.90;;;18.81;100.00;97498.91;4954392;28;20051;-64
2022/08/19 01:15:35;;;;;;;23.15;20.75;;;19.40;99.90;;;18.80;100.00;97484.09;4941023;28;20137;-63
2022/08/19 01:18:08;;;;;;;23.73;21.43;;;19.40;99.90;;;18.86;100.00;97481.94;4943362;28;20137;-62
2022/08/19 01:20:35;;;;;;;21.33;19.33;;;19.40;99.90;;;18.90;100.00;97486.00;4942052;28;20182;-63
2022/08/19 01:23:03;;;;;;;22.55;20.30;;;19.50;99.90;;;18.84;100.00;97487.34;4943423;29;20235;-63
2022/08/19 01:25:40;;;;;;;21.55;19.23;;;19.50;99.90;;;18.87;100.00;97475.75;4941165;29;20139;-64
2022/08/19 01:28:08;;;;;;;23.80;21.33;;;19.50;99.90;;;18.86;100.00;97490.69;4954955;28;20134;-63
2022/08/19 01:30:37;;;;;;;22.20;20.05;;;19.50;99.90;;;18.96;100.00;97486.38;4942715;29;20059;-63
2022/08/19 01:33:05;;;;;;;22.73;20.42;;;19.50;99.90;;;19.03;100.00;97476.22;4941299;28;20457;-64
2022/08/19 01:35:32;;;;;;;22.23;20.02;;;19.50;99.90;;;19.04;100.00;97477.03;4944717;28;20071;-63
2022/08/19 01:38:07;;;;;;;23.92;18.55;;;19.50;99.90;;;19.04;100.00;97472.59;4954697;28;20082;-64
2022/08/19 01:40:39;;;;;;;23.52;21.33;;;19.60;99.90;;;18.99;100.00;97483.50;4939319;28;20484;-63
2022/08/19 01:43:06;;;;;;;22.15;19.85;;;19.60;99.90;;;18.91;100.00;97480.63;4943454;28;20439;-64
2022/08/19 01:45:35;;;;;;;22.13;19.92;;;19.50;99.90;;;18.88;100.00;97493.19;4942617;29;20051;-64
2022/08/19 01:48:03;;;;;;;23.02;20.83;;;19.50;99.90;;;18.87;100.00;97481.81;4940048;28;20049;-64
2022/08/19 01:50:33;;;;;;;20.75;18.45;;;19.50;99.90;;;19.03;100.00;97473.56;4955502;28;20134;-63
2022/08/19 01:53:04;;;;;;;21.08;19.08;;;19.50;99.90;;;18.90;100.00;97471.06;4958798;28;20244;-64
2022/08/19 01:55:37;;;;;;;21.48;19.27;;;19.50;99.90;;;18.83;100.00;97479.56;4943308;29;20150;-63
2022/08/19 01:58:14;;;;;;;23.77;21.48;;;19.40;99.90;;;18.88;100.00;97465.06;4943015;28;20603;-64
2022/08/19 02:00:42;;;;;;;24.52;21.92;;;19.40;99.90;;;18.91;100.00;97456.13;4957740;28;20165;-64
2022/08/19 02:03:11;;;;;;;24.58;22.02;;;19.50;99.90;;;18.98;100.00;97455.53;4942601;29;20069;-63
2022/08/19 02:05:40;;;;;;;22.80;20.63;;;19.50;99.90;;;19.06;100.00;97462.81;4942899;28;20480;-64
2022/08/19 02:08:09;;;;;;;21.45;19.27;;;19.60;99.90;;;19.07;100.00;97458.38;4957188;28;20199;-63
2022/08/19 02:10:41;;;;;;;18.52;16.75;;;19.60;99.90;;;19.10;100.00;97455.50;4942844;28;20362;-64
2022/08/19 02:13:08;;;;;;;19.85;17.95;;;19.70;99.90;;;19.09;100.00;97472.25;4944216;28;20449;-64
2022/08/19 02:15:37;;;;;;;20.60;18.42;;;19.60;99.90;;;18.92;100.00;97492.00;4943523;29;20051;-63
2022/08/19 02:18:05;;;;;;;19.63;17.60;;;19.50;99.90;;;18.79;100.00;97499.97;4940872;28;20178;-64
2022/08/19 02:20:32;;;;;;;21.02;19.00;;;19.50;99.90;;;18.79;100.00;97507.88;4940744;28;20433;-64
2022/08/19 02:23:00;;;;;;;19.83;17.92;;;19.40;99.90;;;18.74;100.00;97520.50;4942041;28;20062;-64
2022/08/19 02:25:28;;;;;;;19.05;17.25;;;19.40;99.90;;;18.81;100.00;97508.59;4943526;29;20517;-63
2022/08/19 02:27:54;;;;;;;18.65;16.85;;;19.40;99.90;;;18.87;100.00;97502.88;4942224;28;20137;-63
2022/08/19 02:30:22;;;;;;;17.35;15.65;;;19.40;99.90;;;18.89;100.00;97486.97;4942787;28;20067;-64
2022/08/19 02:32:49;;;;;;;18.02;16.13;;;19.40;99.90;;;18.84;100.00;97500.47;4941976;28;20561;-64
2022/08/19 02:35:16;;;;;;;17.55;15.88;;;19.40;99.90;;;18.86;100.00;97497.72;4940682;28;20073;-63
2022/08/19 02:40:34;;;;;;;17.92;16.27;;;19.40;99.90;;;18.82;100.00;97505.03;4941981;28;20479;-63
2022/08/19 02:43:07;;;;;;;16.30;14.60;;;19.40;99.90;;;18.89;100.00;97494.88;4941699;29;20114;-62
2022/08/19 02:45:38;;;;;;;17.15;15.43;;;19.40;99.90;;;18.88;100.00;97499.25;4939874;28;20150;-64
2022/08/19 02:48:08;;;;;;;18.63;16.35;;;19.40;99.90;;;18.75;100.00;97507.25;4941413;28;20047;-64
2022/08/19 02:50:54;;;;;;;15.77;14.27;;;19.40;99.90;;;18.77;100.00;97509.78;4939784;29;20051;-63
2022/08/19 02:53:24;;;;;;;17.23;15.63;;;19.40;99.90;;;18.86;100.00;97498.56;4939648;29;20573;-63
2022/08/19 02:55:51;;;;;;;15.52;13.98;;;19.40;99.90;;;18.92;100.00;97487.56;4940027;29;20058;-64
2022/08/19 02:58:20;;;;;;;15.45;13.95;;;19.40;99.90;;;18.94;100.00;97487.44;4936505;29;20061;-63
2022/08/19 03:00:53;;;;;;;17.40;15.60;;;19.40;99.90;;;18.79;100.00;97495.59;4938573;29;20074;-64
2022/08/19 03:03:20;;;;;;;15.10;13.68;;;19.40;99.90;;;18.72;100.00;97507.47;4937448;28;20055;-64
2022/08/19 03:05:47;;;;;;;14.70;13.15;;;19.40;99.90;;;18.72;100.00;97511.91;4940060;29;20051;-64
2022/08/19 03:08:25;;;;;;;14.73;13.25;;;19.30;99.90;;;18.62;100.00;97506.50;4940610;28;20122;-63
2022/08/19 03:10:53;;;;;;;16.88;15.10;;;19.30;99.90;;;18.50;100.00;97523.22;4940674;29;20086;-63
2022/08/19 03:13:20;;;;;;;14.50;13.00;;;19.30;99.90;;;18.59;100.00;97512.84;4940354;29;20051;-63
2022/08/19 03:15:48;;;;;;;16.35;13.98;;;19.30;99.90;;;18.57;100.00;97509.50;4940901;29;20057;-63
2022/08/19 03:18:16;;;;;;;14.68;12.95;;;19.20;99.90;;;18.58;100.00;97505.06;4938698;28;20134;-63
2022/08/19 03:20:54;;;;;;;15.23;13.85;;;19.20;99.90;;;18.42;100.00;97499.31;4952726;28;20087;-64
2022/08/19 03:23:22;;;;;;;16.08;14.38;;;19.10;99.90;;;18.37;100.00;97504.91;4941315;29;20070;-63
2022/08/19 03:25:51;;;;;;;17.20;15.52;;;19.10;99.90;;;18.21;100.00;97521.00;4940589;28;20075;-63
2022/08/19 03:28:38;;;;;;;17.25;15.40;;;18.90;99.90;;;18.20;100.00;97529.84;4940219;28;20047;-64
2022/08/19 03:31:11;;;;;;;17.85;15.35;;;18.80;99.90;;;18.24;100.00;97531.25;4937906;29;20420;-63
2022/08/19 03:33:58;;;;;;;17.00;15.23;;;18.80;99.90;;;18.34;100.00;97519.13;4954041;28;20040;-64
2022/08/19 03:36:27;;;;;;;13.52;12.23;;;18.90;99.90;;;18.31;100.00;97514.06;4939831;28;20082;-63
2022/08/19 03:38:59;;;;;;;15.02;13.48;;;19.00;99.90;;;18.17;100.00;97533.50;4940247;28;20065;-62
2022/08/19 03:41:41;;;;;;;16.55;13.45;;;19.00;99.90;;;18.15;100.00;97538.06;4957050;28;20079;-63
2022/08/19 03:44:14;;;;;;;14.75;13.32;;;18.90;99.90;;;18.11;100.00;97551.50;4943113;29;20464;-62
2022/08/19 03:46:50;;;;;;;16.52;14.98;;;18.80;99.90;;;18.02;100.00;97567.94;4941481;28;20122;-63
2022/08/19 03:49:19;;;;;;;14.95;13.55;;;18.70;99.90;;;17.96;100.00;97583.19;4954719;28;20453;-64
2022/08/19 03:51:50;;;;;;;14.93;13.38;;;18.60;99.90;;;17.91;100.00;97580.06;4957263;28;20046;-63
2022/08/19 03:54:23;;;;;;;16.00;12.98;;;18.60;99.90;;;17.96;100.00;97564.81;4961847;28;20093;-64
2022/08/19 03:56:53;;;;;;;16.95;13.10;;;18.50;99.90;;;17.94;100.00;97560.63;4957644;28;20428;-63
2022/08/19 03:59:32;;;;;;;14.40;12.85;;;18.50;99.90;;;17.85;100.00;97580.50;4960412;28;20148;-63
2022/08/19 04:02:03;;;;;;;16.60;14.75;;;18.50;99.90;;;17.66;100.00;97591.47;4943285;28;20077;-64
2022/08/19 04:04:30;;;;;;;14.70;13.15;;;18.40;99.90;;;17.58;100.00;97590.31;4958872;28;20717;-63
2022/08/19 04:06:58;;;;;;;15.40;13.90;;;18.30;99.90;;;17.50;100.00;97607.47;4943532;29;20050;-64
2022/08/19 04:09:25;;;;;;;14.73;12.93;;;18.30;99.90;;;17.55;100.00;97607.97;4947662;28;20043;-64
2022/08/19 04:11:57;;;;;;;13.88;12.48;;;18.20;99.90;;;17.47;100.00;97607.69;4941311;29;20389;-63
2022/08/19 04:14:29;;;;;;;13.65;12.07;;;18.30;99.90;;;17.60;100.00;97614.69;4943917;29;20126;-62
2022/08/19 04:16:58;;;;;;;15.77;14.07;;;18.30;99.90;;;17.57;100.00;97623.63;4944720;28;20047;-63
2022/08/19 04:19:26;;;;;;;15.63;13.77;;;18.20;99.90;;;17.60;100.00;97620.75;4943220;28;20209;-63
2022/08/19 04:21:54;;;;;;;16.20;14.55;;;18.20;99.90;;;17.57;100.00;97623.63;4946572;28;20153;-64
2022/08/19 04:24:25;;;;;;;14.63;13.13;;;18.20;99.90;;;17.58;100.00;97617.41;4942706;29;20432;-63
2022/08/19 04:26:55;;;;;;;15.20;13.80;;;18.20;99.90;;;17.57;100.00;97607.88;4960039;28;20046;-62
2022/08/19 04:29:24;;;;;;;13.73;12.02;;;18.30;99.90;;;17.59;100.00;97607.78;4942019;29;20126;-63
2022/08/19 04:31:55;;;;;;;16.20;14.50;;;18.20;99.90;;;17.61;100.00;97608.47;4944721;28;20114;-63
2022/08/19 04:34:25;;;;;;;14.50;13.10;;;18.20;99.90;;;17.69;100.00;97595.66;4945183;29;20048;-62
2022/08/19 04:36:54;;;;;;;14.48;13.00;;;18.20;99.90;;;17.84;100.00;97576.22;4939878;28;20524;-63
2022/08/19 04:44:59;;;;;;;12.73;11.43;;;18.50;99.90;;;17.89;100.00;97562.75;4943971;28;20426;-62
2022/08/19 04:47:26;;;;;;;13.13;10.82;;;18.60;99.90;;;17.62;100.00;97576.88;4942263;28;20106;-63
2022/08/19 04:50:14;;;;;;;12.32;11.13;;;18.50;99.90;;;17.63;100.00;97601.34;4942245;29;20750;-63
2022/08/19 04:52:42;;;;;;;13.43;12.13;;;18.40;99.90;;;17.36;100.00;97618.09;4954675;28;20480;-63
2022/08/19 04:55:12;;;;;;;13.65;12.35;;;18.30;99.90;;;17.50;100.00;97623.19;4957404;28;20509;-63
2022/08/19 04:57:39;;;;;;;15.30;13.20;;;18.20;99.90;;;17.40;100.00;97622.16;4944250;28;20078;-64
2022/08/19 05:00:09;;;;;;;16.10;14.15;;;18.10;99.90;;;17.47;100.00;97615.56;4944032;28;20051;-64
2022/08/19 05:02:37;;;;;;;16.42;14.18;;;18.10;99.90;;;17.58;100.00;97596.41;4957999;28;20554;-63
2022/08/19 05:05:06;;;;;;;17.50;14.65;;;18.10;99.90;;;17.66;100.00;97585.38;4958922;28;20101;-63
2022/08/19 05:07:34;;;;;;;16.15;14.48;;;18.20;99.90;;;17.72;100.00;97583.16;4958708;28;20054;-63
2022/08/19 05:10:02;;;;;;;16.00;13.98;;;18.30;99.90;;;17.80;100.00;97579.97;4942509;28;20131;-64
2022/08/19 05:12:29;;;;;;;14.63;12.65;;;18.40;99.90;;;17.90;100.00;97581.03;4959412;28;20146;-64
2022/08/19 05:14:58;;;;;;;16.48;14.65;;;18.50;99.90;;;17.91;100.00;97577.44;4939956;28;20456;-63
2022/08/19 05:17:27;;;;;;;11.63;10.43;;;18.50;99.90;;;17.92;100.00;97568.59;4942883;28;20051;-63
2022/08/19 05:22:47;;;;;;;16.98;12.75;;;18.60;99.90;;;17.66;100.00;97599.34;4945320;28;20058;-63
2022/08/19 05:25:20;;;;;;;15.02;13.27;;;18.40;99.90;;;17.73;100.00;97600.56;4959733;28;20575;-63
2022/08/19 05:27:48;;;;;;;16.20;14.50;;;18.40;99.90;;;17.90;100.00;97606.44;4957169;28;20123;-64
2022/08/19 05:30:16;;;;;;;15.90;14.18;;;18.50;99.90;;;18.05;100.00;97599.25;4938363;28;20048;-64
2022/08/19 05:32:44;;;;;;;14.57;13.10;;;18.60;99.90;;;18.12;100.00;97600.47;4957647;28;20056;-63
2022/08/19 05:35:12;;;;;;;16.45;12.52;;;18.70;99.90;;;18.27;100.00;97595.88;4955596;28;20058;-63
2022/08/19 05:37:45;;;;;;;14.75;13.15;;;18.80;99.90;;;18.41;100.00;97585.19;4940937;28;20090;-63
2022/08/19 05:40:12;;;;;;;15.40;13.75;;;18.90;99.90;;;18.39;100.00;97573.97;4939789;28;20047;-63
2022/08/19 05:42:39;;;;;;;15.98;14.27;;;19.00;99.90;;;18.41;100.00;97573.84;4941459;29;20051;-63
2022/08/19 05:45:07;;;;;;;14.05;12.63;;;19.00;99.90;;;18.52;100.00;97572.09;4941120;28;20130;-64
2022/08/19 05:47:35;;;;;;;15.80;12.88;;;19.10;99.90;;;18.68;100.00;97568.28;4941233;28;20145;-64
2022/08/19 05:50:08;;;;;;;13.95;12.45;;;19.20;99.90;;;18.81;100.00;97564.66;4942076;28;20062;-64
2022/08/19 05:52:38;;;;;;;15.60;12.65;;;19.40;99.90;;;18.91;100.00;97564.81;4944775;29;20071;-63
2022/08/19 05:55:10;;;;;;;13.75;11.45;;;19.60;99.90;;;19.09;100.00;97564.31;4951546;28;20056;-64
2022/08/19 05:57:37;;;;;;;14.43;12.60;;;;;;;19.17;100.00;97565.41;4943967;28;20161;-63
2022/08/19 06:00:10;;;;;;;12.55;11.25;;;19.70;99.90;;;19.37;100.00;97563.84;4959614;28;20087;-64
2022/08/19 06:02:37;;;;;;;14.90;12.00;;;19.80;99.90;;;19.28;100.00;97574.28;4955680;28;20515;-63
2022/08/19 06:05:07;;;;;;;13.63;12.15;;;19.90;99.90;;;19.32;100.00;97578.34;4941803;28;20059;-63
2022/08/19 06:07:34;;;;;;;13.73;11.88;;;19.90;99.90;;;19.36;100.00;97585.03;4939395;29;21341;-63
2022/08/19 06:10:10;;;;;;;11.82;10.60;;;20.00;99.90;;;19.49;100.00;97582.28;4942622;28;20111;-64
2022/08/19 06:12:37;;;;;;;12.93;11.20;;;20.20;99.90;;;19.53;100.00;97581.91;4940720;28;20047;-64
2022/08/19 06:15:10;;;;;;;14.43;10.52;;;20.20;99.90;;;19.71;100.00;97571.75;4938773;28;20131;-64
2022/08/19 06:17:38;;;;;;;12.88;10.38;;;20.30;99.90;;;19.75;100.00;97567.91;4939254;28;20138;-63
2022/08/19 06:20:09;;;;;;;15.32;10.38;;;20.40;99.90;;;19.91;100.00;97574.56;4942433;29;20138;-64
2022/08/19 06:22:42;;;;;;;12.65;9.70;;;20.60;99.90;;;20.04;100.00;97570.81;4938901;29;20057;-64
2022/08/19 06:25:11;;;;;;;11.18;9.90;;;20.80;99.90;;;20.22;100.00;97570.28;4954649;28;20162;-63
2022/08/19 06:27:39;;;;;;;16.27;10.45;;;20.80;99.90;;;20.10;100.00;97569.50;4943483;28;20493;-64
2022/08/19 06:30:26;;;;;;;12.73;11.27;;;20.80;99.90;;;20.14;100.00;97573.56;4942174;28;20468;-64
2022/08/19 06:32:53;;;;;;;14.82;10.35;;;20.80;99.90;;;20.21;100.00;97565.97;4943786;28;20157;-64
2022/08/19 06:35:21;;;;;;;15.48;10.98;;;20.90;99.90;;;20.14;100.00;97570.06;4939849;28;20143;-65
2022/08/19 06:37:48;;;;;;;10.75;9.00;;;21.00;99.90;;;20.16;100.00;97570.78;4942658;28;20129;-64
2022/08/19 06:40:14;;;;;;;10.18;9.18;;;20.90;99.90;;;20.24;100.00;97573.63;4938541;28;20082;-64
2022/08/19 06:42:42;;;;;;;14.98;9.30;;;21.00;99.90;;;20.46;100.00;97565.63;4939727;28;20141;-64
2022/08/19 06:45:22;;;;;;;15.27;11.02;;;21.10;99.90;;;20.48;100.00;97549.66;4941313;29;20054;-64
2022/08/19 06:48:00;;;;;;;11.48;9.48;;;21.20;99.90;;;20.49;100.00;97559.25;4953520;28;20051;-63
2022/08/19 06:50:27;;;;;;;14.05;10.98;;;21.30;99.90;;;20.30;100.00;97554.69;4940355;28;20135;-64
2022/08/19 06:52:54;;;;;;;12.77;10.30;;;21.30;99.90;;;20.57;100.00;97563.91;4940501;28;20551;-63
2022/08/19 06:55:21;;;;;;;11.98;9.88;;;21.40;99.90;;;20.69;100.00;97552.34;4941227;29;20183;-64
2022/08/19 06:57:52;;;;;;;11.05;9.40;;;21.60;99.90;;;20.91;100.00;97543.44;4938177;28;20048;-64
2022/08/19 07:00:20;;;;;;;12.45;10.30;;;21.80;99.90;;;21.00;100.00;97533.91;4955937;28;20106;-64
2022/08/19 07:02:48;;;;;;;11.57;10.35;;;22.00;99.90;;;20.77;100.00;97530.59;4943831;28;20425;-64
2022/08/19 07:05:24;;;;;;;15.57;11.57;;;22.10;99.90;;;20.81;100.00;97542.56;4937979;29;20047;-63
2022/08/19 07:07:51;;;;;;;12.57;11.27;;;22.20;99.90;;;21.13;100.00;97536.31;4939486;28;20043;-64
2022/08/19 07:10:19;;;;;;;13.27;10.77;;;22.20;99.90;;;21.16;100.00;97518.41;4941081;28;20095;-64
2022/08/19 07:12:46;;;;;;;16.58;13.50;;;22.30;99.90;;;20.88;100.00;97526.06;4943493;28;20139;-64
2022/08/19 07:15:13;;;;;;;14.00;11.93;;;22.40;99.90;;;21.21;100.00;97523.28;4937912;29;20126;-64
2022/08/19 07:17:40;;;;;;;16.85;12.32;;;22.50;99.90;;;21.35;100.00;97525.59;4941978;28;20470;-64
2022/08/19 07:20:09;;;;;;;13.00;10.32;;;22.50;99.90;;;21.64;100.00;97528.31;4942748;29;20103;-63
2022/08/19 07:22:40;;;;;;;13.13;11.43;;;22.50;99.90;;;21.50;100.00;97513.69;4943341;28;20150;-64
2022/08/19 07:25:09;;;;;;;14.88;11.32;;;22.60;99.90;;;21.76;100.00;97513.19;4943312;28;20073;-63
2022/08/19 07:27:37;;;;;;;15.32;13.77;;;22.70;99.90;;;21.39;100.00;97511.13;4938702;28;20090;-64
2022/08/19 07:30:08;;;;;;;12.90;11.55;;;22.60;99.90;;;21.47;100.00;97511.31;4939091;29;20134;-63
2022/08/19 07:32:39;;;;;;;18.92;15.07;;;22.50;99.90;;;21.41;100.00;97521.59;4943481;28;20145;-64
2022/08/19 07:35:07;;;;;;;14.77;13.05;;;22.50;99.90;;;21.52;100.00;97516.19;4941201;29;20047;-63
2022/08/19 07:37:35;;;;;;;21.27;13.77;;;22.50;99.90;;;21.54;100.00;97529.28;4937255;28;20733;-65
2022/08/19 07:40:06;;;;;;;15.25;12.07;;;22.40;99.90;;;21.82;100.00;97517.09;4940667;28;20602;-64
2022/08/19 07:42:33;;;;;;;14.65;12.43;;;22.60;99.90;;;22.09;100.00;97516.41;4954845;28;21055;-64
2022/08/19 07:45:00;;;;;;;18.23;15.30;;;22.80;99.90;;;21.61;100.00;97514.56;4940663;29;20104;-63
2022/08/19 07:47:28;;;;;;;17.10;13.80;;;23.00;99.90;;;21.62;100.00;97510.94;4942229;28;20098;-64
2022/08/19 07:50:15;;;;;;;18.58;14.27;;;23.00;99.90;;;21.80;100.00;97505.81;4938480;29;20119;-64
2022/08/19 07:52:44;;;;;;;18.25;14.68;;;23.10;99.90;;;22.14;100.00;97501.78;4939165;28;20677;-63
2022/08/19 07:55:18;;;;;;;16.48;13.75;;;23.10;99.90;;;22.25;100.00;97498.19;4939204;29;20056;-64
2022/08/19 07:58:05;;;;;;;15.88;13.02;;;23.10;99.90;;;22.14;100.00;97508.88;4937466;28;20360;-65
2022/08/19 08:00:35;;;;;;;14.88;12.98;;;23.20;99.90;;;22.09;100.00;97505.84;4938375;29;20497;-63
2022/08/19 08:03:03;;;;;;;13.52;12.07;;;23.20;99.90;;;22.34;100.00;97507.09;4939715;29;20460;-64
2022/08/19 08:11:20;;;;;;;14.80;13.10;;;23.40;99.90;;;22.74;100.00;97503.41;4938459;28;20105;-64
2022/08/19 08:13:49;;;;;;;17.30;13.40;;;23.60;99.90;;;22.62;100.00;97499.25;4935781;28;20103;-64
2022/08/19 08:16:30;;;;;;;19.45;14.82;;;23.70;99.90;;;22.58;100.00;97500.50;4942934;28;20052;-64
2022/08/19 08:19:00;;;;;;;13.85;10.90;;;23.60;99.90;;;22.95;100.00;97513.81;4939408;28;20126;-62
2022/08/19 08:21:27;;;;;;;19.85;14.80;;;23.70;99.90;;;22.65;100.00;97491.88;4937221;29;20111;-63
2022/08/19 08:23:55;;;;;;;15.40;12.48;;;23.80;99.90;;;22.81;100.00;97488.63;4940122;28;20153;-64
2022/08/19 08:26:23;;;;;;;13.68;12.27;;;23.90;99.90;;;22.61;100.00;97489.66;4938246;28;20059;-64
2022/08/19 08:28:51;;;;;;;13.98;12.10;;;23.90;99.90;;;22.74;100.00;97493.66;4937132;28;20575;-64
2022/08/19 08:31:19;;;;;;;15.80;12.23;;;23.90;99.90;;;22.37;100.00;97485.66;4936503;29;20178;-64
2022/08/19 08:33:47;;;;;;;14.85;12.02;;;23.40;99.90;;;22.26;100.00;97481.38;4951774;28;20062;-64
2022/08/19 08:36:15;;;;;;;15.02;13.27;;;23.40;99.90;;;22.41;100.00;97491.50;4932478;29;20059;-64
2022/08/19 08:38:46;;;;;;;15.60;11.25;;;23.50;99.90;;;22.53;100.00;97482.44;4957258;28;20149;-65
2022/08/19 08:41:35;;;;;;;11.18;9.48;;;23.70;99.90;;;22.98;100.00;97482.56;4941041;28;20146;-64
2022/08/19 08:44:04;;;;;;;9.82;8.82;;;24.00;99.90;;;23.53;100.00;97465.03;4946841;28;20506;-64
2022/08/19 08:46:41;;;;;;;11.90;9.80;;;24.50;99.90;;;23.57;100.00;97448.69;4941750;29;20055;-63
2022/08/19 08:49:24;;;;;;;13.73;9.68;;;24.90;99.90;;;23.93;100.00;97445.25;4955915;28;20043;-63
2022/08/19 08:52:15;;;;;;;12.40;9.43;;;25.00;99.90;;;24.17;100.00;97437.47;4942224;29;20051;-64
2022/08/19 08:54:46;;;;;;;;;;;25.10;99.90;;;24.75;100.00;97438.72;4956280;28;20170;-64
2022/08/19 08:57:36;;;;;;;13.15;8.38;;;25.70;99.90;;;24.62;100.00;97436.47;4954398;28;19930;-65
2022/08/19 09:00:19;;;;;;;10.23;7.55;;;25.70;99.90;;;24.16;100.00;97429.69;4942129;28;20077;-64
2022/08/19 09:02:47;;;;;;;9.02;8.05;;;25.50;99.90;;;23.64;100.00;97435.66;4942280;28;20122;-65
2022/08/19 09:05:19;;;;;;;10.88;6.95;;;25.30;99.90;;;23.98;100.00;97451.75;4941454;29;20040;-64
2022/08/19 09:08:08;;;;;;;10.32;8.38;;;25.20;99.90;;;24.01;100.00;97450.59;4940486;28;20040;-64
2022/08/19 09:10:53;;;;;;;8.82;7.82;;;24.90;99.90;;;23.73;100.00;97450.66;4953844;28;20051;-65
2022/08/19 09:13:31;;;;;;;;;;;25.00;99.90;;;23.71;100.00;97459.75;4955554;28;20106;-64
2022/08/19 09:16:26;;;;;;;11.15;7.68;;;24.70;99.90;;;23.69;100.00;97467.84;4957890;28;20293;-64
2022/08/19 09:18:58;;;;;;;9.45;6.90;;;24.60;99.90;;;23.27;100.00;97473.69;4944136;28;20106;-63
2022/08/19 09:21:27;;;;;;;7.20;5.82;;;24.40;99.90;;;23.18;100.00;97469.28;4958017;28;20603;-64
2022/08/19 09:24:01;;;;;;;6.95;6.10;;;24.20;99.90;;;22.89;100.00;97475.50;4944198;29;20117;-65
2022/08/19 09:26:31;;;;;;;6.50;5.25;;;24.00;99.90;;;23.27;100.00;97463.09;4956637;28;20058;-63
2022/08/19 09:29:20;;;;;;;6.40;5.60;;;24.00;99.90;;;24.48;100.00;97445.03;4956817;28;20486;-64
2022/08/19 09:31:49;;;;;;;6.70;5.25;;;24.40;99.90;;;25.29;100.00;97433.13;4941929;28;20127;-64
2022/08/19 09:34:16;;;;;;;6.28;4.53;;;24.90;99.90;;;26.05;100.00;97418.84;4942221;28;20055;-63
2022/08/19 09:36:52;;;;;;;6.68;5.15;;;25.40;99.90;;;26.46;100.00;97412.63;4943695;28;20177;-64
2022/08/19 09:39:21;;;;;;;7.03;3.95;;;26.00;99.90;;;26.91;100.00;97406.72;4942481;28;20054;-64
2022/08/19 09:41:49;;;;;;;7.20;4.70;;;26.30;99.90;;;26.68;100.00;97384.47;4940042;28;20051;-64
2022/08/19 09:44:18;;;;;;;7.68;4.15;;;26.40;99.90;;;27.11;100.00;97396.44;4942266;28;20058;-63
2022/08/19 09:46:46;;;;;;;4.93;3.67;;;26.80;99.90;;;27.16;100.00;97403.09;4938711;28;20055;-64
2022/08/19 09:49:21;;;;;;;4.05;3.60;;;27.10;99.90;;;27.90;100.00;97391.00;4945706;28;20461;-63
2022/08/19 09:51:53;;;;;;;5.30;4.22;;;27.60;99.90;;;27.72;100.00;97377.94;4944630;28;20134;-64
2022/08/19 09:54:20;;;;;;;8.18;3.40;;;27.60;99.90;;;27.18;100.00;97390.41;4954732;28;20138;-64
2022/08/19 09:56:52;;;;;;;5.72;3.60;;;27.70;99.90;;;28.32;100.00;97378.09;4944398;28;20059;-63
2022/08/19 09:59:20;;;;;;;4.38;2.97;;;27.80;99.90;;;28.89;100.00;97372.13;4952927;28;20189;-63
2022/08/19 10:01:47;;;;;;;4.35;3.13;;;27.80;99.90;;;27.33;100.00;97380.72;4944273;28;20103;-63
2022/08/19 10:04:15;;;;;;;4.38;3.70;;;27.60;99.90;;;26.52;100.00;97381.84;4936449;29;20146;-63
2022/08/19 10:06:47;;;;;;;7.85;4.05;;;27.20;99.90;;;26.50;100.00;97372.22;4942315;28;20145;-64
2022/08/19 10:09:19;;;;;;;5.40;4.43;;;26.90;99.90;;;26.83;100.00;97374.78;4956892;28;20109;-64
2022/08/19 10:12:02;;;;;;;6.77;5.10;;;27.00;99.90;;;26.97;100.00;97378.53;4941261;28;20052;-63
2022/08/19 10:14:30;;;;;;;6.25;4.20;;;27.00;99.90;;;27.86;100.00;97371.00;4944801;28;20146;-64
2022/08/19 10:17:00;;;;;;;5.82;4.40;;;27.30;99.90;;;28.22;100.00;97359.69;4942090;28;20091;-63
2022/08/19 10:19:43;;;;;;;9.57;4.55;;;27.50;99.90;;;27.85;100.00;97368.50;4939618;28;20066;-64
2022/08/19 10:22:22;;;;;;;4.30;3.15;;;27.80;99.90;;;28.09;100.00;97365.63;4954670;28;20070;-64
2022/08/19 10:24:52;;;;;;;4.20;3.60;;;28.00;99.90;;;28.15;100.00;97366.75;4942758;28;20065;-65
2022/08/19 10:27:19;;;;;;;5.47;3.20;;;28.30;99.90;;;28.18;100.00;97365.56;4940480;28;20122;-65
2022/08/19 10:29:47;;;;;;;8.43;2.65;;;28.50;99.20;;;29.29;100.00;97361.94;4943594;28;20492;-65
2022/08/19 10:32:15;;;;;;;3.72;3.20;;;28.90;99.20;;;28.87;100.00;97366.13;4942860;28;20133;-64
2022/08/19 10:34:42;;;;;;;6.47;3.75;;;29.00;99.10;;;28.77;100.00;97365.63;4941444;28;20103;-64
2022/08/19 10:37:17;;;;;;;4.47;3.00;;;29.10;98.50;;;28.88;100.00;97358.97;4940385;28;20087;-64